sensor_id;sensor_type;location;lat;lon;timestamp;temperature;humidity
19292;DHT22;9779;51.756;7.450;2023-09-18T00:00:39;19.90;99.90
19292;DHT22;9779;51.756;7.450;2023-09-18T00:03:04;19.90;99.90
19292;DHT22;9779;51.756;7.450;2023-09-18T00:05:30;19.90;99.90
19292;DHT22;9779;51.756;7.450;2023-09-18T00:07:56;19.80;99.90
19292;DHT22;9779;51.756;7.450;2023-09-18T00:10:22;19.80;99.90
19292;DHT22;9779;51.756;7.450;2023-09-18T00:12:47;19.80;99.90
19292;DHT22;9779;51.756;7.450;2023-09-18T00:15:13;19.70;99.90
19292;DHT22;9779;51.756;7.450;2023-09-18T00:17:38;19.70;99.90
19292;DHT22;9779;51.756;7.450;2023-09-18T00:20:04;19.70;99.90
19292;DHT22;9779;51.756;7.450;2023-09-18T00:22:32;19.70;99.90
19292;DHT22;9779;51.756;7.450;2023-09-18T00:24:57;19.70;99.90
19292;DHT22;9779;51.756;7.450;2023-09-18T00:27:23;19.70;99.90
19292;DHT22;9779;51.756;7.450;2023-09-18T00:29:48;19.70;99.90
19292;DHT22;9779;51.756;7.450;2023-09-18T00:32:14;19.60;99.90
19292;DHT22;9779;51.756;7.450;2023-09-18T00:34:39;19.60;99.90
19292;DHT22;9779;51.756;7.450;2023-09-18T00:37:05;19.60;99.90
19292;DHT22;9779;51.756;7.450;2023-09-18T00:39:31;19.60;99.90
19292;DHT22;9779;51.756;7.450;2023-09-18T00:41:56;19.60;99.90
19292;DHT22;9779;51.756;7.450;2023-09-18T00:44:23;19.50;99.90
19292;DHT22;9779;51.756;7.450;2023-09-18T00:46:49;19.50;99.90
19292;DHT22;9779;51.756;7.450;2023-09-18T00:49:16;19.50;99.90
19292;DHT22;9779;51.756;7.450;2023-09-18T00:51:42;19.50;99.90
19292;DHT22;9779;51.756;7.450;2023-09-18T00:54:08;19.50;99.90
19292;DHT22;9779;51.756;7.450;2023-09-18T00:56:35;19.60;99.90
19292;DHT22;9779;51.756;7.450;2023-09-18T00:59:01;19.50;99.90
19292;DHT22;9779;51.756;7.450;2023-09-18T01:01:28;19.50;99.90
19292;DHT22;9779;51.756;7.450;2023-09-18T01:03:55;19.30;99.90
19292;DHT22;9779;51.756;7.450;2023-09-18T01:06:21;19.40;99.90
19292;DHT22;9779;51.756;7.450;2023-09-18T01:08:48;19.50;99.90
19292;DHT22;9779;51.756;7.450;2023-09-18T01:11:54;19.40;99.90
19292;DHT22;9779;51.756;7.450;2023-09-18T01:14:31;19.30;99.90
19292;DHT22;9779;51.756;7.450;2023-09-18T01:16:59;19.30;99.90
19292;DHT22;9779;51.756;7.450;2023-09-18T01:19:43;19.30;99.90
19292;DHT22;9779;51.756;7.450;2023-09-18T01:22:11;19.40;99.90
19292;DHT22;9779;51.756;7.450;2023-09-18T01:24:38;19.30;99.90
19292;DHT22;9779;51.756;7.450;2023-09-18T01:27:06;19.30;99.90
19292;DHT22;9779;51.756;7.450;2023-09-18T01:29:32;19.30;99.90
19292;DHT22;9779;51.756;7.450;2023-09-18T01:31:58;19.20;99.90
19292;DHT22;9779;51.756;7.450;2023-09-18T01:34:37;19.20;99.90
19292;DHT22;9779;51.756;7.450;2023-09-18T01:37:05;19.30;99.90
19292;DHT22;9779;51.756;7.450;2023-09-18T01:39:32;19.20;99.90
19292;DHT22;9779;51.756;7.450;2023-09-18T01:42:01;19.20;99.90
19292;DHT22;9779;51.756;7.450;2023-09-18T01:44:27;19.30;99.90
19292;DHT22;9779;51.756;7.450;2023-09-18T01:46:54;19.20;99.90
19292;DHT22;9779;51.756;7.450;2023-09-18T01:49:33;19.20;99.90
19292;DHT22;9779;51.756;7.450;2023-09-18T01:51:59;19.30;99.90
19292;DHT22;9779;51.756;7.450;2023-09-18T01:54:25;19.20;99.90
19292;DHT22;9779;51.756;7.450;2023-09-18T01:56:51;19.10;99.90
19292;DHT22;9779;51.756;7.450;2023-09-18T01:59:17;19.30;99.90
19292;DHT22;9779;51.756;7.450;2023-09-18T02:01:43;19.10;99.90
19292;DHT22;9779;51.756;7.450;2023-09-18T02:04:09;19.10;99.90
19292;DHT22;9779;51.756;7.450;2023-09-18T02:06:35;19.10;99.90
19292;DHT22;9779;51.756;7.450;2023-09-18T02:09:01;19.20;99.90
19292;DHT22;9779;51.756;7.450;2023-09-18T02:11:27;19.20;99.90
19292;DHT22;9779;51.756;7.450;2023-09-18T02:13:53;19.10;99.90
19292;DHT22;9779;51.756;7.450;2023-09-18T02:16:18;19.20;99.90
19292;DHT22;9779;51.756;7.450;2023-09-18T02:18:46;19.10;99.90
19292;DHT22;9779;51.756;7.450;2023-09-18T02:21:19;19.10;99.90
19292;DHT22;9779;51.756;7.450;2023-09-18T02:23:45;19.20;99.90
19292;DHT22;9779;51.756;7.450;2023-09-18T02:26:10;19.10;99.90
19292;DHT22;9779;51.756;7.450;2023-09-18T02:28:36;19.10;99.90
19292;DHT22;9779;51.756;7.450;2023-09-18T02:31:02;19.20;99.90
19292;DHT22;9779;51.756;7.450;2023-09-18T02:33:28;19.10;99.90
19292;DHT22;9779;51.756;7.450;2023-09-18T02:35:53;19.10;99.90
19292;DHT22;9779;51.756;7.450;2023-09-18T02:38:19;19.20;99.90
19292;DHT22;9779;51.756;7.450;2023-09-18T02:40:44;19.10;99.90
19292;DHT22;9779;51.756;7.450;2023-09-18T02:43:10;19.20;99.90
19292;DHT22;9779;51.756;7.450;2023-09-18T02:45:35;19.20;99.90
19292;DHT22;9779;51.756;7.450;2023-09-18T02:48:01;19.10;99.90
19292;DHT22;9779;51.756;7.450;2023-09-18T02:50:26;19.10;99.90
19292;DHT22;9779;51.756;7.450;2023-09-18T02:52:52;19.10;99.90
19292;DHT22;9779;51.756;7.450;2023-09-18T02:55:17;19.10;99.90
19292;DHT22;9779;51.756;7.450;2023-09-18T02:57:43;19.10;99.90
19292;DHT22;9779;51.756;7.450;2023-09-18T03:00:09;19.00;99.90
19292;DHT22;9779;51.756;7.450;2023-09-18T03:02:35;19.10;99.90
19292;DHT22;9779;51.756;7.450;2023-09-18T03:05:01;19.10;99.90
19292;DHT22;9779;51.756;7.450;2023-09-18T03:07:26;19.30;99.90
19292;DHT22;9779;51.756;7.450;2023-09-18T03:09:55;19.10;99.90
19292;DHT22;9779;51.756;7.450;2023-09-18T03:12:20;19.10;99.90
19292;DHT22;9779;51.756;7.450;2023-09-18T03:14:47;19.10;99.90
19292;DHT22;9779;51.756;7.450;2023-09-18T03:17:13;19.00;99.90
19292;DHT22;9779;51.756;7.450;2023-09-18T03:19:39;19.20;99.90
19292;DHT22;9779;51.756;7.450;2023-09-18T03:22:04;19.10;99.90
19292;DHT22;9779;51.756;7.450;2023-09-18T03:24:30;19.20;99.90
19292;DHT22;9779;51.756;7.450;2023-09-18T03:26:55;19.00;99.90
19292;DHT22;9779;51.756;7.450;2023-09-18T03:29:21;19.20;99.90
19292;DHT22;9779;51.756;7.450;2023-09-18T03:31:47;19.10;99.90
19292;DHT22;9779;51.756;7.450;2023-09-18T03:34:12;19.00;99.90
19292;DHT22;9779;51.756;7.450;2023-09-18T03:36:38;19.20;99.90
19292;DHT22;9779;51.756;7.450;2023-09-18T03:39:04;19.10;99.90
19292;DHT22;9779;51.756;7.450;2023-09-18T03:41:30;19.00;99.90
19292;DHT22;9779;51.756;7.450;2023-09-18T03:44:00;19.10;99.90
19292;DHT22;9779;51.756;7.450;2023-09-18T03:46:25;19.10;99.90
19292;DHT22;9779;51.756;7.450;2023-09-18T03:48:51;19.10;99.90
19292;DHT22;9779;51.756;7.450;2023-09-18T03:51:16;19.10;99.90
19292;DHT22;9779;51.756;7.450;2023-09-18T03:53:44;19.00;99.90
19292;DHT22;9779;51.756;7.450;2023-09-18T03:56:09;19.20;99.90
19292;DHT22;9779;51.756;7.450;2023-09-18T03:58:35;19.20;99.90
19292;DHT22;9779;51.756;7.450;2023-09-18T04:01:01;19.10;99.90
19292;DHT22;9779;51.756;7.450;2023-09-18T04:03:27;19.20;99.90
19292;DHT22;9779;51.756;7.450;2023-09-18T04:05:52;19.10;99.90
19292;DHT22;9779;51.756;7.450;2023-09-18T04:08:18;19.30;99.90
19292;DHT22;9779;51.756;7.450;2023-09-18T04:10:44;19.20;99.90
19292;DHT22;9779;51.756;7.450;2023-09-18T04:13:10;19.10;99.90
19292;DHT22;9779;51.756;7.450;2023-09-18T04:15:37;19.20;99.90
19292;DHT22;9779;51.756;7.450;2023-09-18T04:18:04;19.30;99.90
19292;DHT22;9779;51.756;7.450;2023-09-18T04:20:30;19.20;99.90
19292;DHT22;9779;51.756;7.450;2023-09-18T04:23:18;19.20;99.90
19292;DHT22;9779;51.756;7.450;2023-09-18T04:25:44;19.20;99.90
19292;DHT22;9779;51.756;7.450;2023-09-18T04:28:09;19.30;99.90
19292;DHT22;9779;51.756;7.450;2023-09-18T04:30:35;19.20;99.90
19292;DHT22;9779;51.756;7.450;2023-09-18T04:33:01;19.30;99.90
19292;DHT22;9779;51.756;7.450;2023-09-18T04:35:26;19.30;99.90
19292;DHT22;9779;51.756;7.450;2023-09-18T04:37:55;19.20;99.90
19292;DHT22;9779;51.756;7.450;2023-09-18T04:40:22;19.30;99.90
19292;DHT22;9779;51.756;7.450;2023-09-18T04:42:49;19.20;99.90
19292;DHT22;9779;51.756;7.450;2023-09-18T04:45:15;19.40;99.90
19292;DHT22;9779;51.756;7.450;2023-09-18T04:47:41;19.30;99.90
19292;DHT22;9779;51.756;7.450;2023-09-18T04:50:07;19.30;99.90
19292;DHT22;9779;51.756;7.450;2023-09-18T04:52:35;19.20;99.90
19292;DHT22;9779;51.756;7.450;2023-09-18T04:55:01;19.40;99.90
19292;DHT22;9779;51.756;7.450;2023-09-18T04:57:27;19.50;99.90
19292;DHT22;9779;51.756;7.450;2023-09-18T04:59:52;19.50;99.90
19292;DHT22;9779;51.756;7.450;2023-09-18T05:02:18;19.40;99.90
19292;DHT22;9779;51.756;7.450;2023-09-18T05:04:43;19.40;99.90
19292;DHT22;9779;51.756;7.450;2023-09-18T05:07:09;19.30;99.90
19292;DHT22;9779;51.756;7.450;2023-09-18T05:09:34;19.40;99.90
19292;DHT22;9779;51.756;7.450;2023-09-18T05:12:00;19.60;99.90
19292;DHT22;9779;51.756;7.450;2023-09-18T05:14:26;19.50;99.90
19292;DHT22;9779;51.756;7.450;2023-09-18T05:16:52;19.70;99.90
19292;DHT22;9779;51.756;7.450;2023-09-18T05:19:18;19.60;99.90
19292;DHT22;9779;51.756;7.450;2023-09-18T05:21:43;19.80;99.90
19292;DHT22;9779;51.756;7.450;2023-09-18T05:24:09;19.70;99.90
19292;DHT22;9779;51.756;7.450;2023-09-18T05:26:35;19.80;99.90
19292;DHT22;9779;51.756;7.450;2023-09-18T05:29:00;19.80;99.90
19292;DHT22;9779;51.756;7.450;2023-09-18T05:31:26;19.70;99.90
19292;DHT22;9779;51.756;7.450;2023-09-18T05:33:52;19.80;99.90
19292;DHT22;9779;51.756;7.450;2023-09-18T05:36:17;19.80;99.90
19292;DHT22;9779;51.756;7.450;2023-09-18T05:38:43;19.90;99.90
19292;DHT22;9779;51.756;7.450;2023-09-18T05:41:09;19.80;99.90
19292;DHT22;9779;51.756;7.450;2023-09-18T05:43:35;19.90;99.90
19292;DHT22;9779;51.756;7.450;2023-09-18T05:46:01;20.00;99.90
19292;DHT22;9779;51.756;7.450;2023-09-18T05:48:27;20.00;99.90
19292;DHT22;9779;51.756;7.450;2023-09-18T05:50:53;19.90;99.90
19292;DHT22;9779;51.756;7.450;2023-09-18T05:53:20;19.90;99.90
19292;DHT22;9779;51.756;7.450;2023-09-18T05:55:45;20.00;99.90
19292;DHT22;9779;51.756;7.450;2023-09-18T05:58:11;19.90;99.90
19292;DHT22;9779;51.756;7.450;2023-09-18T06:00:37;20.10;99.90
19292;DHT22;9779;51.756;7.450;2023-09-18T06:03:02;20.00;99.90
19292;DHT22;9779;51.756;7.450;2023-09-18T06:05:28;20.00;99.90
19292;DHT22;9779;51.756;7.450;2023-09-18T06:07:56;20.00;99.90
19292;DHT22;9779;51.756;7.450;2023-09-18T06:10:22;20.00;99.90
19292;DHT22;9779;51.756;7.450;2023-09-18T06:12:48;20.00;99.90
19292;DHT22;9779;51.756;7.450;2023-09-18T06:15:13;20.00;99.90
19292;DHT22;9779;51.756;7.450;2023-09-18T06:17:41;20.00;99.90
19292;DHT22;9779;51.756;7.450;2023-09-18T06:20:08;20.10;99.90
19292;DHT22;9779;51.756;7.450;2023-09-18T06:22:38;20.10;99.90
19292;DHT22;9779;51.756;7.450;2023-09-18T06:25:05;20.10;99.90
19292;DHT22;9779;51.756;7.450;2023-09-18T06:27:33;20.10;99.90
19292;DHT22;9779;51.756;7.450;2023-09-18T06:29:59;20.10;99.90
19292;DHT22;9779;51.756;7.450;2023-09-18T06:32:25;20.10;99.90
19292;DHT22;9779;51.756;7.450;2023-09-18T06:34:52;20.20;99.90
19292;DHT22;9779;51.756;7.450;2023-09-18T06:37:17;20.30;99.90
19292;DHT22;9779;51.756;7.450;2023-09-18T06:39:43;20.20;99.90
19292;DHT22;9779;51.756;7.450;2023-09-18T06:42:09;20.20;99.90
19292;DHT22;9779;51.756;7.450;2023-09-18T06:44:35;20.20;99.90
19292;DHT22;9779;51.756;7.450;2023-09-18T06:47:00;20.30;99.90
19292;DHT22;9779;51.756;7.450;2023-09-18T06:49:26;20.20;99.90
19292;DHT22;9779;51.756;7.450;2023-09-18T06:51:52;20.20;99.90
19292;DHT22;9779;51.756;7.450;2023-09-18T06:54:17;20.40;99.90
19292;DHT22;9779;51.756;7.450;2023-09-18T06:56:43;20.30;99.90
19292;DHT22;9779;51.756;7.450;2023-09-18T06:59:10;20.40;99.90
19292;DHT22;9779;51.756;7.450;2023-09-18T07:01:36;20.40;99.90
19292;DHT22;9779;51.756;7.450;2023-09-18T07:04:02;20.40;99.90
19292;DHT22;9779;51.756;7.450;2023-09-18T07:06:29;20.50;99.90
19292;DHT22;9779;51.756;7.450;2023-09-18T07:08:55;20.50;99.90
19292;DHT22;9779;51.756;7.450;2023-09-18T07:11:21;20.50;99.90
19292;DHT22;9779;51.756;7.450;2023-09-18T07:13:46;20.60;99.90
19292;DHT22;9779;51.756;7.450;2023-09-18T07:16:12;20.50;99.90
19292;DHT22;9779;51.756;7.450;2023-09-18T07:18:38;20.50;99.90
19292;DHT22;9779;51.756;7.450;2023-09-18T07:21:04;20.60;99.90
19292;DHT22;9779;51.756;7.450;2023-09-18T07:23:30;20.60;99.90
19292;DHT22;9779;51.756;7.450;2023-09-18T07:25:55;20.60;99.90
19292;DHT22;9779;51.756;7.450;2023-09-18T07:28:24;20.60;99.90
19292;DHT22;9779;51.756;7.450;2023-09-18T07:30:49;20.70;99.90
19292;DHT22;9779;51.756;7.450;2023-09-18T07:33:15;20.80;99.90
19292;DHT22;9779;51.756;7.450;2023-09-18T07:35:46;20.80;99.90
19292;DHT22;9779;51.756;7.450;2023-09-18T07:38:12;20.80;99.90
19292;DHT22;9779;51.756;7.450;2023-09-18T07:40:38;20.70;99.90
19292;DHT22;9779;51.756;7.450;2023-09-18T07:43:03;20.80;99.90
19292;DHT22;9779;51.756;7.450;2023-09-18T07:45:29;20.80;99.90
19292;DHT22;9779;51.756;7.450;2023-09-18T07:47:54;20.90;99.90
19292;DHT22;9779;51.756;7.450;2023-09-18T07:50:20;20.90;99.90
19292;DHT22;9779;51.756;7.450;2023-09-18T07:52:45;20.90;99.90
19292;DHT22;9779;51.756;7.450;2023-09-18T07:55:11;20.90;99.90
19292;DHT22;9779;51.756;7.450;2023-09-18T07:57:36;20.90;99.90
19292;DHT22;9779;51.756;7.450;2023-09-18T08:00:04;21.10;99.90
19292;DHT22;9779;51.756;7.450;2023-09-18T08:02:33;21.10;99.90
19292;DHT22;9779;51.756;7.450;2023-09-18T08:05:00;21.20;99.90
19292;DHT22;9779;51.756;7.450;2023-09-18T08:07:27;21.30;99.90
19292;DHT22;9779;51.756;7.450;2023-09-18T08:09:53;21.20;99.90
19292;DHT22;9779;51.756;7.450;2023-09-18T08:12:19;21.20;99.90
19292;DHT22;9779;51.756;7.450;2023-09-18T08:14:44;21.20;99.90
19292;DHT22;9779;51.756;7.450;2023-09-18T08:17:10;21.20;99.90
19292;DHT22;9779;51.756;7.450;2023-09-18T08:19:35;21.20;99.90
19292;DHT22;9779;51.756;7.450;2023-09-18T08:22:02;21.20;99.90
19292;DHT22;9779;51.756;7.450;2023-09-18T08:24:30;21.20;99.90
19292;DHT22;9779;51.756;7.450;2023-09-18T08:26:56;21.20;99.90
19292;DHT22;9779;51.756;7.450;2023-09-18T08:29:22;21.20;99.90
19292;DHT22;9779;51.756;7.450;2023-09-18T08:31:48;21.30;99.90
19292;DHT22;9779;51.756;7.450;2023-09-18T08:34:15;21.20;99.90
19292;DHT22;9779;51.756;7.450;2023-09-18T08:36:41;21.30;99.90
19292;DHT22;9779;51.756;7.450;2023-09-18T08:39:06;21.30;99.90
19292;DHT22;9779;51.756;7.450;2023-09-18T08:41:32;21.40;99.90
19292;DHT22;9779;51.756;7.450;2023-09-18T08:44:02;21.30;99.90
19292;DHT22;9779;51.756;7.450;2023-09-18T08:46:29;21.20;99.90
19292;DHT22;9779;51.756;7.450;2023-09-18T08:48:57;21.30;99.90
19292;DHT22;9779;51.756;7.450;2023-09-18T08:51:22;21.20;99.90
19292;DHT22;9779;51.756;7.450;2023-09-18T08:53:48;21.20;99.90
19292;DHT22;9779;51.756;7.450;2023-09-18T08:56:15;21.20;99.90
19292;DHT22;9779;51.756;7.450;2023-09-18T08:58:43;21.20;99.90
19292;DHT22;9779;51.756;7.450;2023-09-18T09:01:09;21.10;99.90
19292;DHT22;9779;51.756;7.450;2023-09-18T09:03:42;21.20;99.90
19292;DHT22;9779;51.756;7.450;2023-09-18T09:06:09;21.30;99.90
19292;DHT22;9779;51.756;7.450;2023-09-18T09:08:36;21.30;99.90
19292;DHT22;9779;51.756;7.450;2023-09-18T09:11:02;21.30;99.90
19292;DHT22;9779;51.756;7.450;2023-09-18T09:13:28;21.30;99.90
19292;DHT22;9779;51.756;7.450;2023-09-18T09:15:55;21.50;99.90
19292;DHT22;9779;51.756;7.450;2023-09-18T09:18:24;21.30;99.90
19292;DHT22;9779;51.756;7.450;2023-09-18T09:21:07;21.30;99.90
19292;DHT22;9779;51.756;7.450;2023-09-18T09:23:51;21.40;99.90
19292;DHT22;9779;51.756;7.450;2023-09-18T09:26:22;21.40;99.90
19292;DHT22;9779;51.756;7.450;2023-09-18T09:28:48;21.40;99.90
19292;DHT22;9779;51.756;7.450;2023-09-18T09:31:30;21.40;99.90
19292;DHT22;9779;51.756;7.450;2023-09-18T09:33:56;21.50;99.90
19292;DHT22;9779;51.756;7.450;2023-09-18T09:36:23;21.50;99.90
19292;DHT22;9779;51.756;7.450;2023-09-18T09:38:55;21.60;99.90
19292;DHT22;9779;51.756;7.450;2023-09-18T09:41:22;21.50;99.90
19292;DHT22;9779;51.756;7.450;2023-09-18T09:43:48;21.70;99.90
19292;DHT22;9779;51.756;7.450;2023-09-18T09:46:17;21.70;99.90
19292;DHT22;9779;51.756;7.450;2023-09-18T09:49:05;21.60;99.90
19292;DHT22;9779;51.756;7.450;2023-09-18T09:51:32;21.60;99.90
19292;DHT22;9779;51.756;7.450;2023-09-18T09:53:59;21.90;99.90
19292;DHT22;9779;51.756;7.450;2023-09-18T09:56:47;21.70;99.90
19292;DHT22;9779;51.756;7.450;2023-09-18T09:59:16;21.70;99.90
19292;DHT22;9779;51.756;7.450;2023-09-18T10:01:46;21.80;99.90
19292;DHT22;9779;51.756;7.450;2023-09-18T10:04:16;21.90;99.90
19292;DHT22;9779;51.756;7.450;2023-09-18T10:07:06;21.90;99.90
19292;DHT22;9779;51.756;7.450;2023-09-18T10:09:35;21.80;99.90
19292;DHT22;9779;51.756;7.450;2023-09-18T10:12:01;21.90;99.90
19292;DHT22;9779;51.756;7.450;2023-09-18T10:14:30;22.10;99.90
19292;DHT22;9779;51.756;7.450;2023-09-18T10:17:16;22.00;99.90
19292;DHT22;9779;51.756;7.450;2023-09-18T10:20:01;22.00;99.90
19292;DHT22;9779;51.756;7.450;2023-09-18T10:22:43;22.10;99.90
19292;DHT22;9779;51.756;7.450;2023-09-18T10:25:17;22.00;99.90
19292;DHT22;9779;51.756;7.450;2023-09-18T10:27:47;21.90;99.90
19292;DHT22;9779;51.756;7.450;2023-09-18T10:30:24;22.00;99.90
19292;DHT22;9779;51.756;7.450;2023-09-18T10:32:51;21.90;99.90
19292;DHT22;9779;51.756;7.450;2023-09-18T10:35:17;22.00;99.90
19292;DHT22;9779;51.756;7.450;2023-09-18T10:37:43;21.80;99.90
19292;DHT22;9779;51.756;7.450;2023-09-18T10:40:11;22.10;99.90
19292;DHT22;9779;51.756;7.450;2023-09-18T10:42:41;21.90;99.90
19292;DHT22;9779;51.756;7.450;2023-09-18T10:45:09;22.10;99.90
19292;DHT22;9779;51.756;7.450;2023-09-18T10:47:44;22.10;99.90
19292;DHT22;9779;51.756;7.450;2023-09-18T10:50:25;22.20;99.90
19292;DHT22;9779;51.756;7.450;2023-09-18T10:52:51;22.30;99.90
19292;DHT22;9779;51.756;7.450;2023-09-18T10:55:17;22.20;99.90
19292;DHT22;9779;51.756;7.450;2023-09-18T10:58:03;22.50;99.90
19292;DHT22;9779;51.756;7.450;2023-09-18T11:00:29;22.80;99.90
19292;DHT22;9779;51.756;7.450;2023-09-18T11:03:17;23.00;99.90
19292;DHT22;9779;51.756;7.450;2023-09-18T11:05:46;23.00;99.90
19292;DHT22;9779;51.756;7.450;2023-09-18T11:08:26;23.10;99.90
19292;DHT22;9779;51.756;7.450;2023-09-18T11:11:09;23.30;99.90
19292;DHT22;9779;51.756;7.450;2023-09-18T11:13:44;23.50;99.90
19292;DHT22;9779;51.756;7.450;2023-09-18T11:16:16;23.40;99.90
19292;DHT22;9779;51.756;7.450;2023-09-18T11:18:42;23.40;99.90
19292;DHT22;9779;51.756;7.450;2023-09-18T11:21:11;23.50;99.90
19292;DHT22;9779;51.756;7.450;2023-09-18T11:23:39;23.60;99.90
19292;DHT22;9779;51.756;7.450;2023-09-18T11:26:11;23.70;99.90
19292;DHT22;9779;51.756;7.450;2023-09-18T11:28:37;23.90;99.90
19292;DHT22;9779;51.756;7.450;2023-09-18T11:31:04;24.00;99.90
19292;DHT22;9779;51.756;7.450;2023-09-18T11:33:34;24.10;99.90
19292;DHT22;9779;51.756;7.450;2023-09-18T11:36:12;24.40;99.90
19292;DHT22;9779;51.756;7.450;2023-09-18T11:48:47;25.00;99.90
19292;DHT22;9779;51.756;7.450;2023-09-18T11:51:21;25.00;99.90
19292;DHT22;9779;51.756;7.450;2023-09-18T11:53:47;25.30;99.90
19292;DHT22;9779;51.756;7.450;2023-09-18T11:56:15;25.40;99.90
19292;DHT22;9779;51.756;7.450;2023-09-18T11:58:50;25.40;99.90
19292;DHT22;9779;51.756;7.450;2023-09-18T12:01:17;25.30;99.90
19292;DHT22;9779;51.756;7.450;2023-09-18T12:03:43;25.10;99.90
19292;DHT22;9779;51.756;7.450;2023-09-18T12:06:09;25.10;99.90
19292;DHT22;9779;51.756;7.450;2023-09-18T12:08:39;25.20;99.90
19292;DHT22;9779;51.756;7.450;2023-09-18T12:11:05;25.40;99.90
19292;DHT22;9779;51.756;7.450;2023-09-18T12:13:31;25.30;99.90
19292;DHT22;9779;51.756;7.450;2023-09-18T12:16:01;25.30;99.90
19292;DHT22;9779;51.756;7.450;2023-09-18T12:18:29;25.10;99.90
19292;DHT22;9779;51.756;7.450;2023-09-18T12:20:55;25.00;99.90
19292;DHT22;9779;51.756;7.450;2023-09-18T12:23:24;24.90;99.90
19292;DHT22;9779;51.756;7.450;2023-09-18T12:25:56;24.70;99.90
19292;DHT22;9779;51.756;7.450;2023-09-18T12:28:22;24.60;99.90
19292;DHT22;9779;51.756;7.450;2023-09-18T12:30:48;24.40;99.90
19292;DHT22;9779;51.756;7.450;2023-09-18T12:33:16;24.30;99.90
19292;DHT22;9779;51.756;7.450;2023-09-18T12:35:42;24.30;99.90
19292;DHT22;9779;51.756;7.450;2023-09-18T12:38:16;24.30;99.90
19292;DHT22;9779;51.756;7.450;2023-09-18T12:40:43;24.30;99.90
19292;DHT22;9779;51.756;7.450;2023-09-18T12:43:12;24.30;99.90
19292;DHT22;9779;51.756;7.450;2023-09-18T12:45:41;24.40;99.90
19292;DHT22;9779;51.756;7.450;2023-09-18T12:48:07;24.40;99.90
19292;DHT22;9779;51.756;7.450;2023-09-18T12:50:34;24.60;99.90
19292;DHT22;9779;51.756;7.450;2023-09-18T12:55:36;25.30;99.90
19292;DHT22;9779;51.756;7.450;2023-09-18T12:58:02;25.60;99.90
19292;DHT22;9779;51.756;7.450;2023-09-18T13:00:34;25.60;99.90
19292;DHT22;9779;51.756;7.450;2023-09-18T13:03:00;25.50;99.90
19292;DHT22;9779;51.756;7.450;2023-09-18T13:05:26;25.10;99.90
19292;DHT22;9779;51.756;7.450;2023-09-18T13:07:52;25.00;99.90
19292;DHT22;9779;51.756;7.450;2023-09-18T13:10:19;25.20;99.90
19292;DHT22;9779;51.756;7.450;2023-09-18T13:12:52;25.40;99.90
19292;DHT22;9779;51.756;7.450;2023-09-18T13:17:56;25.20;99.90
19292;DHT22;9779;51.756;7.450;2023-09-18T13:20:31;25.40;99.90
19292;DHT22;9779;51.756;7.450;2023-09-18T13:22:58;25.90;99.90
19292;DHT22;9779;51.756;7.450;2023-09-18T13:25:32;26.10;99.90
19292;DHT22;9779;51.756;7.450;2023-09-18T13:28:00;26.30;99.90
19292;DHT22;9779;51.756;7.450;2023-09-18T13:30:26;26.40;99.90
19292;DHT22;9779;51.756;7.450;2023-09-18T13:33:05;26.20;99.80
19292;DHT22;9779;51.756;7.450;2023-09-18T13:35:32;26.20;99.90
19292;DHT22;9779;51.756;7.450;2023-09-18T13:37:57;26.20;99.80
19292;DHT22;9779;51.756;7.450;2023-09-18T13:40:23;26.30;99.10
19292;DHT22;9779;51.756;7.450;2023-09-18T13:42:49;26.50;98.80
19292;DHT22;9779;51.756;7.450;2023-09-18T13:45:14;26.50;97.60
19292;DHT22;9779;51.756;7.450;2023-09-18T13:47:42;26.30;96.90
19292;DHT22;9779;51.756;7.450;2023-09-18T13:50:08;26.50;97.40
19292;DHT22;9779;51.756;7.450;2023-09-18T13:52:35;26.70;97.90
19292;DHT22;9779;51.756;7.450;2023-09-18T13:55:04;26.80;98.10
19292;DHT22;9779;51.756;7.450;2023-09-18T13:57:34;26.60;96.70
19292;DHT22;9779;51.756;7.450;2023-09-18T14:00:02;26.50;96.70
19292;DHT22;9779;51.756;7.450;2023-09-18T14:02:32;26.30;96.40
19292;DHT22;9779;51.756;7.450;2023-09-18T14:04:58;26.70;95.50
19292;DHT22;9779;51.756;7.450;2023-09-18T14:07:24;27.10;99.90
19292;DHT22;9779;51.756;7.450;2023-09-18T14:09:50;26.90;95.20
19292;DHT22;9779;51.756;7.450;2023-09-18T14:12:15;26.60;95.00
19292;DHT22;9779;51.756;7.450;2023-09-18T14:14:42;26.40;95.30
19292;DHT22;9779;51.756;7.450;2023-09-18T14:17:08;26.10;95.00
19292;DHT22;9779;51.756;7.450;2023-09-18T14:19:34;26.30;97.30
19292;DHT22;9779;51.756;7.450;2023-09-18T14:22:00;26.50;96.50
19292;DHT22;9779;51.756;7.450;2023-09-18T14:24:29;26.90;95.70
19292;DHT22;9779;51.756;7.450;2023-09-18T14:26:55;27.10;96.40
19292;DHT22;9779;51.756;7.450;2023-09-18T14:29:21;27.10;96.60
19292;DHT22;9779;51.756;7.450;2023-09-18T14:31:47;27.10;96.60
19292;DHT22;9779;51.756;7.450;2023-09-18T14:34:12;27.20;96.30
19292;DHT22;9779;51.756;7.450;2023-09-18T14:36:38;27.50;95.70
19292;DHT22;9779;51.756;7.450;2023-09-18T14:39:06;27.40;96.60
19292;DHT22;9779;51.756;7.450;2023-09-18T14:41:36;27.60;94.10
19292;DHT22;9779;51.756;7.450;2023-09-18T14:44:03;27.80;92.70
19292;DHT22;9779;51.756;7.450;2023-09-18T14:46:30;27.50;92.70
19292;DHT22;9779;51.756;7.450;2023-09-18T14:48:56;27.70;91.40
19292;DHT22;9779;51.756;7.450;2023-09-18T14:51:22;27.80;92.00
19292;DHT22;9779;51.756;7.450;2023-09-18T14:53:47;28.10;92.50
19292;DHT22;9779;51.756;7.450;2023-09-18T14:56:13;28.20;90.90
19292;DHT22;9779;51.756;7.450;2023-09-18T14:58:38;28.20;87.30
19292;DHT22;9779;51.756;7.450;2023-09-18T15:01:04;27.90;86.30
19292;DHT22;9779;51.756;7.450;2023-09-18T15:03:29;28.20;89.20
19292;DHT22;9779;51.756;7.450;2023-09-18T15:05:55;28.10;87.00
19292;DHT22;9779;51.756;7.450;2023-09-18T15:15:41;28.60;82.00
19292;DHT22;9779;51.756;7.450;2023-09-18T15:18:08;28.40;83.50
19292;DHT22;9779;51.756;7.450;2023-09-18T15:20:34;28.50;80.80
19292;DHT22;9779;51.756;7.450;2023-09-18T15:23:00;28.50;81.90
19292;DHT22;9779;51.756;7.450;2023-09-18T15:25:26;28.60;80.70
19292;DHT22;9779;51.756;7.450;2023-09-18T15:27:52;28.50;77.50
19292;DHT22;9779;51.756;7.450;2023-09-18T15:30:18;28.40;79.30
19292;DHT22;9779;51.756;7.450;2023-09-18T15:32:48;28.20;78.10
19292;DHT22;9779;51.756;7.450;2023-09-18T15:35:19;28.10;80.20
19292;DHT22;9779;51.756;7.450;2023-09-18T15:37:45;27.80;81.30
19292;DHT22;9779;51.756;7.450;2023-09-18T15:40:11;27.70;79.80
19292;DHT22;9779;51.756;7.450;2023-09-18T15:42:38;27.80;78.80
19292;DHT22;9779;51.756;7.450;2023-09-18T15:45:09;28.10;79.90
19292;DHT22;9779;51.756;7.450;2023-09-18T15:47:40;28.00;75.60
19292;DHT22;9779;51.756;7.450;2023-09-18T15:50:06;28.10;77.00
19292;DHT22;9779;51.756;7.450;2023-09-18T15:52:32;28.20;72.20
19292;DHT22;9779;51.756;7.450;2023-09-18T15:54:58;28.30;72.90
19292;DHT22;9779;51.756;7.450;2023-09-18T15:57:29;28.00;70.50
19292;DHT22;9779;51.756;7.450;2023-09-18T15:59:55;27.80;74.20
19292;DHT22;9779;51.756;7.450;2023-09-18T16:02:23;27.60;73.80
19292;DHT22;9779;51.756;7.450;2023-09-18T16:04:49;27.40;75.50
19292;DHT22;9779;51.756;7.450;2023-09-18T16:07:14;27.30;77.30
19292;DHT22;9779;51.756;7.450;2023-09-18T16:09:40;27.40;77.60